createdAt,value
2023-02-19T00:01:30.072Z,136.43
2023-02-19T00:03:59.575Z,132.50
2023-02-19T00:06:28.253Z,134.82
2023-02-19T00:08:55.619Z,119.95
2023-02-19T00:11:25.258Z,124.07
2023-02-19T00:13:53.358Z,132.68
2023-02-19T00:16:21.609Z,137.57
2023-02-19T00:18:48.610Z,126.43
2023-02-19T00:21:16.089Z,132.73
2023-02-19T00:23:42.690Z,129.35
2023-02-19T00:26:18.036Z,118.07
2023-02-19T00:28:46.627Z,125.47
2023-02-19T00:31:25.616Z,115.72
2023-02-19T00:36:21.469Z,121.03
2023-02-19T00:38:48.526Z,101.15
2023-02-19T00:41:19.397Z,114.80
2023-02-19T00:44:03.121Z,111.30
2023-02-19T00:46:33.895Z,131.80
2023-02-19T00:49:00.546Z,117.15
2023-02-19T00:51:30.649Z,128.13
2023-02-19T00:53:58.104Z,122.07
2023-02-19T00:56:24.899Z,130.57
2023-02-19T00:58:51.458Z,121.85
2023-02-19T01:01:18.724Z,117.25
2023-02-19T01:03:46.020Z,134.02
2023-02-19T01:06:15.876Z,118.97
2023-02-19T01:08:42.498Z,124.43
2023-02-19T01:11:10.776Z,126.75
2023-02-19T01:13:38.366Z,136.57
2023-02-19T01:16:09.035Z,137.35
2023-02-19T01:18:36.156Z,136.98
2023-02-19T01:21:13.918Z,121.32
2023-02-19T01:23:41.462Z,124.53
2023-02-19T01:26:11.903Z,138.55
2023-02-19T01:28:38.696Z,126.80
2023-02-19T01:31:07.737Z,128.52
2023-02-19T01:36:04.558Z,134.38
2023-02-19T01:38:31.472Z,113.13
2023-02-19T01:41:00.180Z,110.10
2023-02-19T01:43:27.362Z,131.32
2023-02-19T01:45:54.032Z,140.20
2023-02-19T01:48:37.763Z,121.13
2023-02-19T01:51:12.919Z,132.73
2023-02-19T01:53:43.676Z,132.60
2023-02-19T01:56:12.163Z,133.25
2023-02-19T01:58:39.192Z,134.95
2023-02-19T02:01:08.529Z,125.03
2023-02-19T02:03:40.528Z,125.10
2023-02-19T02:06:17.577Z,130.20
2023-02-19T02:09:02.706Z,136.75
2023-02-19T02:11:29.528Z,142.70
2023-02-19T02:13:57.594Z,143.27
2023-02-19T02:16:45.697Z,117.18
2023-02-19T02:19:51.085Z,106.43
2023-02-19T02:22:36.213Z,122.78
2023-02-19T02:25:11.806Z,132.13
2023-02-19T02:27:41.437Z,146.88
2023-02-19T02:30:46.364Z,128.85
2023-02-19T02:33:21.358Z,117.15
2023-02-19T02:35:52.987Z,131.95
2023-02-19T02:38:23.850Z,145.18
2023-02-19T02:40:51.297Z,126.85
2023-02-19T02:43:18.009Z,128.15
2023-02-19T02:45:44.745Z,138.05
2023-02-19T02:48:33.403Z,134.45
2023-02-19T02:51:02.912Z,111.20
2023-02-19T02:54:16.552Z,133.18
2023-02-19T02:56:46.468Z,131.68
2023-02-19T02:59:15.591Z,126.38
2023-02-19T03:05:03.866Z,94.72
2023-02-19T03:07:39.630Z,129.48
2023-02-19T03:10:10.097Z,139.02
2023-02-19T03:12:58.917Z,106.32
2023-02-19T03:15:49.742Z,122.47
2023-02-19T03:18:37.066Z,118.60
2023-02-19T03:21:06.447Z,127.25
2023-02-19T03:23:51.704Z,119.43
2023-02-19T03:26:19.649Z,139.45
2023-02-19T03:29:08.621Z,123.30
2023-02-19T03:34:10.060Z,94.15
2023-02-19T03:36:45.882Z,130.00
2023-02-19T03:39:18.677Z,98.30
2023-02-19T03:41:54.931Z,126.72
2023-02-19T03:44:46.761Z,122.57
2023-02-19T03:47:29.000Z,128.48
2023-02-19T03:50:14.883Z,115.65
2023-02-19T03:53:18.580Z,119.35
2023-02-19T03:55:59.488Z,126.70
2023-02-19T03:58:38.729Z,124.57
2023-02-19T04:01:17.291Z,122.82
2023-02-19T04:03:52.829Z,130.57
2023-02-19T04:06:28.154Z,137.38
2023-02-19T04:09:00.130Z,117.57
2023-02-19T04:11:28.840Z,130.70
2023-02-19T04:14:06.849Z,124.18
2023-02-19T04:16:37.298Z,113.13
2023-02-19T04:19:08.308Z,113.55
2023-02-19T04:21:36.399Z,124.25
2023-02-19T04:24:08.170Z,128.48
2023-02-19T04:26:36.177Z,123.20
2023-02-19T04:29:03.320Z,128.18
2023-02-19T04:31:35.240Z,126.15
2023-02-19T04:34:03.909Z,136.10
2023-02-19T04:36:31.768Z,128.20
2023-02-19T04:38:58.676Z,117.32
2023-02-19T04:41:25.712Z,137.20
2023-02-19T04:43:52.279Z,120.53
2023-02-19T04:46:18.964Z,147.90
2023-02-19T04:48:45.610Z,135.63
2023-02-19T04:51:12.430Z,131.50
2023-02-19T04:53:39.186Z,140.70
2023-02-19T04:56:11.527Z,153.43
2023-02-19T04:58:38.853Z,130.15
2023-02-19T05:01:05.862Z,129.95
2023-02-19T05:03:35.039Z,133.07
2023-02-19T05:06:05.771Z,140.48
2023-02-19T05:08:32.830Z,143.02
2023-02-19T05:11:00.788Z,147.75
2023-02-19T05:13:27.563Z,142.45
2023-02-19T05:15:56.036Z,150.75
2023-02-19T05:18:22.700Z,158.88
2023-02-19T05:20:50.427Z,144.75
2023-02-19T05:23:17.006Z,138.52
2023-02-19T05:25:43.619Z,147.20
2023-02-19T05:28:19.307Z,165.35
2023-02-19T05:30:48.872Z,128.82
2023-02-19T05:33:16.652Z,126.00
2023-02-19T05:35:54.552Z,157.82
2023-02-19T05:38:22.267Z,142.48
2023-02-19T05:40:49.224Z,152.98
2023-02-19T05:43:16.358Z,146.70
2023-02-19T05:45:43.390Z,147.10
2023-02-19T05:48:10.869Z,162.82
2023-02-19T05:50:39.728Z,149.80
2023-02-19T05:53:06.569Z,162.13
2023-02-19T05:55:36.367Z,131.65
2023-02-19T05:58:03.135Z,128.18
2023-02-19T06:00:30.264Z,122.47
2023-02-19T06:02:56.825Z,181.52
2023-02-19T06:05:23.435Z,170.32
2023-02-19T06:07:52.760Z,208.63
2023-02-19T06:10:19.886Z,173.15
2023-02-19T06:12:46.443Z,151.20
2023-02-19T06:15:12.987Z,138.88
2023-02-19T06:17:40.809Z,136.82
2023-02-19T06:20:07.668Z,150.38
2023-02-19T06:22:34.237Z,142.38
2023-02-19T06:25:00.832Z,149.45
2023-02-19T06:27:28.161Z,156.68
2023-02-19T06:29:54.730Z,162.57
2023-02-19T06:32:21.384Z,157.75
2023-02-19T06:34:48.048Z,132.93
2023-02-19T06:37:14.594Z,146.60
2023-02-19T06:39:41.345Z,145.65
2023-02-19T06:42:07.887Z,154.32
2023-02-19T06:44:34.628Z,157.93
2023-02-19T06:47:01.219Z,159.32
2023-02-19T06:49:27.878Z,156.05
2023-02-19T06:51:54.491Z,169.25
2023-02-19T06:54:21.132Z,154.68
2023-02-19T06:56:47.800Z,159.48
2023-02-19T06:59:18.997Z,131.32
2023-02-19T07:01:46.246Z,149.25
2023-02-19T07:04:13.006Z,141.38
2023-02-19T07:06:39.683Z,132.98
2023-02-19T07:09:08.297Z,132.13
2023-02-19T07:11:37.976Z,132.90
2023-02-19T07:14:07.770Z,139.25
2023-02-19T07:16:34.835Z,128.52
2023-02-19T07:19:01.608Z,142.05
2023-02-19T07:21:29.280Z,138.73
2023-02-19T07:23:56.669Z,154.73
2023-02-19T07:26:24.032Z,134.40
2023-02-19T07:28:52.264Z,139.88
2023-02-19T07:31:21.565Z,132.00
2023-02-19T07:33:49.156Z,128.90
2023-02-19T07:36:17.653Z,121.47
2023-02-19T07:38:44.680Z,124.45
2023-02-19T07:41:11.658Z,118.78
2023-02-19T07:43:39.179Z,129.10
2023-02-19T07:46:11.340Z,179.85
2023-02-19T07:48:38.828Z,144.65
2023-02-19T07:51:07.247Z,116.68
2023-02-19T07:53:39.074Z,142.38
2023-02-19T07:56:08.009Z,124.65
2023-02-19T07:58:34.928Z,124.88
2023-02-19T08:01:15.039Z,113.03
2023-02-19T08:03:42.585Z,134.63
2023-02-19T08:06:11.292Z,122.22
2023-02-19T08:08:39.607Z,136.20
2023-02-19T08:11:25.182Z,104.97
2023-02-19T08:13:52.941Z,122.50
2023-02-19T08:16:29.610Z,131.93
2023-02-19T08:19:00.211Z,128.30
2023-02-19T08:21:26.782Z,120.47
2023-02-19T08:23:53.558Z,133.88
2023-02-19T08:26:20.784Z,140.50
2023-02-19T08:28:48.904Z,132.63
2023-02-19T08:31:15.858Z,125.35
2023-02-19T08:33:42.735Z,123.55
2023-02-19T08:36:11.147Z,121.72
2023-02-19T08:38:38.396Z,136.90
2023-02-19T08:41:13.489Z,141.27
2023-02-19T08:43:41.216Z,133.18
2023-02-19T08:46:10.188Z,144.73
2023-02-19T08:48:37.618Z,141.52
2023-02-19T08:51:08.441Z,118.35
2023-02-19T08:53:36.329Z,119.13
2023-02-19T08:56:07.353Z,126.47
2023-02-19T08:58:34.069Z,111.93
2023-02-19T09:01:00.817Z,119.28
2023-02-19T09:03:27.588Z,117.25
2023-02-19T09:05:54.155Z,114.20
2023-02-19T09:08:20.743Z,115.43
2023-02-19T09:10:57.947Z,109.97
2023-02-19T09:13:24.562Z,103.60
2023-02-19T09:15:51.180Z,108.53
2023-02-19T09:18:17.821Z,113.32
2023-02-19T09:20:44.401Z,104.43
2023-02-19T09:23:11.408Z,106.30
2023-02-19T09:25:37.955Z,103.90
2023-02-19T09:28:04.945Z,99.03
2023-02-19T09:30:31.558Z,106.55
2023-02-19T09:32:58.364Z,121.85
2023-02-19T09:35:25.096Z,124.13
2023-02-19T09:37:51.909Z,120.57
2023-02-19T09:40:27.611Z,112.38
2023-02-19T09:42:54.442Z,102.97
2023-02-19T09:45:26.457Z,107.20
2023-02-19T09:47:58.462Z,95.85
2023-02-19T09:50:37.456Z,95.22
2023-02-19T09:55:45.214Z,93.80
2023-02-19T09:58:46.621Z,96.30
2023-02-19T10:01:14.197Z,90.05
2023-02-19T10:03:47.441Z,100.03
2023-02-19T10:06:23.970Z,93.38
2023-02-19T10:09:13.866Z,98.80
2023-02-19T10:11:40.589Z,95.18
2023-02-19T10:14:21.859Z,92.25
2023-02-19T10:16:50.095Z,98.15
2023-02-19T10:19:17.353Z,99.63
2023-02-19T10:21:44.318Z,109.75
2023-02-19T10:24:20.405Z,101.35
2023-02-19T10:26:47.565Z,96.85
2023-02-19T10:29:14.234Z,95.72
2023-02-19T10:31:40.876Z,92.82
2023-02-19T10:34:18.379Z,88.45
2023-02-19T10:36:48.746Z,91.72
2023-02-19T10:39:38.765Z,85.85
2023-02-19T10:42:05.983Z,96.50
2023-02-19T10:44:42.477Z,92.22
2023-02-19T10:47:17.312Z,87.93
2023-02-19T10:49:46.157Z,83.38
2023-02-19T10:52:22.394Z,99.30
2023-02-19T10:54:55.158Z,103.25
2023-02-19T10:57:29.847Z,97.03
2023-02-19T10:59:59.171Z,98.45
2023-02-19T11:02:26.367Z,90.20
2023-02-19T11:05:06.587Z,98.00
2023-02-19T11:07:33.506Z,98.47
2023-02-19T11:10:00.551Z,95.28
2023-02-19T11:12:29.854Z,105.07
2023-02-19T11:14:57.099Z,92.60
2023-02-19T11:17:29.679Z,93.03
2023-02-19T11:20:00.033Z,103.25
2023-02-19T11:22:34.232Z,94.93
2023-02-19T11:25:07.773Z,99.72
2023-02-19T11:27:34.543Z,91.07
2023-02-19T11:30:30.472Z,94.90
2023-02-19T11:33:19.929Z,93.55
2023-02-19T11:35:48.745Z,92.38
2023-02-19T11:38:18.067Z,106.53
2023-02-19T11:41:04.420Z,100.35
2023-02-19T11:43:55.615Z,88.55
2023-02-19T11:46:59.071Z,99.93
2023-02-19T11:49:37.836Z,98.85
2023-02-19T11:54:49.365Z,97.70
2023-02-19T11:57:22.762Z,95.10
2023-02-19T12:00:20.335Z,96.25
2023-02-19T12:03:05.825Z,94.68
2023-02-19T12:06:01.375Z,90.22
2023-02-19T12:08:52.033Z,98.32
2023-02-19T12:11:21.740Z,105.60
2023-02-19T12:14:01.439Z,99.85
2023-02-19T12:17:05.509Z,101.30
2023-02-19T12:19:57.057Z,111.40
2023-02-19T12:22:41.330Z,96.45
2023-02-19T12:25:26.208Z,100.57
2023-02-19T12:28:20.783Z,101.40
2023-02-19T12:31:36.293Z,105.50
2023-02-19T12:34:12.313Z,94.60
2023-02-19T12:37:14.798Z,105.28
2023-02-19T12:40:00.861Z,102.13
2023-02-19T12:42:53.814Z,100.68
2023-02-19T12:45:52.699Z,103.47
2023-02-19T12:48:37.419Z,97.32
2023-02-19T12:51:21.328Z,102.90
2023-02-19T12:53:58.674Z,104.30
2023-02-19T12:56:31.991Z,102.20
2023-02-19T12:59:04.540Z,105.43
2023-02-19T13:01:36.151Z,87.38
2023-02-19T13:04:41.705Z,96.43
2023-02-19T13:07:24.153Z,90.97
2023-02-19T13:09:53.674Z,100.25
2023-02-19T13:12:31.161Z,98.43
2023-02-19T13:15:02.348Z,101.30
2023-02-19T13:17:41.633Z,105.38
2023-02-19T13:20:20.753Z,106.65
2023-02-19T13:23:16.757Z,90.72
2023-02-19T13:26:00.646Z,104.00
2023-02-19T13:28:35.246Z,98.88
2023-02-19T13:31:27.481Z,94.25
2023-02-19T13:34:09.274Z,95.80
2023-02-19T13:36:36.724Z,86.63
2023-02-19T13:39:07.354Z,89.82
2023-02-19T13:41:40.791Z,97.18
2023-02-19T13:44:17.774Z,103.60
2023-02-19T13:46:46.226Z,114.38
2023-02-19T13:49:27.818Z,110.75
2023-02-19T13:51:56.670Z,109.32
2023-02-19T13:57:22.269Z,116.97
2023-02-19T13:59:50.747Z,111.97
2023-02-19T14:02:23.205Z,92.63
2023-02-19T14:05:01.619Z,122.22
2023-02-19T14:07:28.160Z,126.70
2023-02-19T14:09:55.165Z,103.78
2023-02-19T14:12:32.350Z,108.63
2023-02-19T14:15:36.851Z,109.95
2023-02-19T14:18:03.540Z,100.50
2023-02-19T14:20:33.046Z,102.63
2023-02-19T14:23:08.835Z,99.55
2023-02-19T14:25:43.685Z,103.03
2023-02-19T14:28:10.201Z,101.65
2023-02-19T14:31:17.817Z,97.13
2023-02-19T14:33:52.230Z,108.93
2023-02-19T14:36:50.281Z,103.90
2023-02-19T14:39:24.405Z,113.15
2023-02-19T14:42:20.719Z,105.40
2023-02-19T14:44:52.442Z,114.07
2023-02-19T14:47:22.356Z,107.43
2023-02-19T14:50:03.312Z,108.30
2023-02-19T14:52:36.745Z,115.60
2023-02-19T14:55:08.352Z,117.20
2023-02-19T14:57:47.886Z,116.90
2023-02-19T15:00:37.464Z,113.30
2023-02-19T15:03:05.450Z,113.35
2023-02-19T15:05:36.644Z,126.43
2023-02-19T15:08:18.374Z,103.28
2023-02-19T15:10:45.074Z,125.03
2023-02-19T15:13:17.499Z,114.85
2023-02-19T15:15:46.371Z,108.28
2023-02-19T15:21:05.672Z,108.93
2023-02-19T15:23:35.880Z,117.15
2023-02-19T15:26:02.831Z,124.38
2023-02-19T15:28:33.212Z,116.18
2023-02-19T15:30:59.859Z,117.97
2023-02-19T15:33:28.023Z,103.65
2023-02-19T15:36:07.679Z,105.75
2023-02-19T15:38:34.768Z,104.70
2023-02-19T15:41:01.640Z,129.80
2023-02-19T15:43:39.492Z,125.53
2023-02-19T15:46:20.431Z,108.43
2023-02-19T15:48:53.189Z,106.38
2023-02-19T15:51:29.710Z,111.40
2023-02-19T15:54:04.045Z,111.88
2023-02-19T15:56:34.030Z,98.95
2023-02-19T15:59:13.516Z,107.68
2023-02-19T16:01:40.766Z,115.07
2023-02-19T16:04:14.877Z,116.13
2023-02-19T16:06:53.722Z,110.47
2023-02-19T16:11:54.413Z,100.20
2023-02-19T16:14:26.914Z,99.72
2023-02-19T16:17:11.136Z,111.10
2023-02-19T16:19:43.878Z,104.05
2023-02-19T16:22:12.669Z,110.28
2023-02-19T16:24:45.774Z,113.72
2023-02-19T16:27:36.457Z,118.38
2023-02-19T16:30:19.165Z,108.68
2023-02-19T16:32:47.035Z,104.25
2023-02-19T16:35:42.002Z,112.82
2023-02-19T16:38:14.104Z,105.30
2023-02-19T16:40:53.280Z,119.47
2023-02-19T16:43:41.041Z,107.43
2023-02-19T16:46:10.177Z,116.97
2023-02-19T16:48:36.917Z,134.02
2023-02-19T16:51:06.284Z,126.72
2023-02-19T16:53:33.476Z,138.88
2023-02-19T16:56:00.417Z,125.57
2023-02-19T16:58:27.308Z,119.28
2023-02-19T17:00:53.989Z,126.20
2023-02-19T17:03:24.390Z,118.65
2023-02-19T17:05:51.572Z,126.05
2023-02-19T17:08:34.106Z,114.47
2023-02-19T17:11:03.765Z,121.82
2023-02-19T17:13:31.055Z,114.20
2023-02-19T17:15:58.578Z,122.97
2023-02-19T17:18:25.210Z,110.50
2023-02-19T17:20:59.131Z,105.65
2023-02-19T17:23:25.988Z,96.45
2023-02-19T17:25:52.712Z,114.43
2023-02-19T17:28:21.816Z,98.28
2023-02-19T17:30:48.494Z,109.28
2023-02-19T17:33:15.161Z,102.10
2023-02-19T17:35:44.483Z,101.05
2023-02-19T17:38:14.372Z,102.85
2023-02-19T17:40:41.422Z,103.32
2023-02-19T17:43:08.224Z,90.45
2023-02-19T17:45:34.869Z,104.60
2023-02-19T17:48:01.614Z,100.63
2023-02-19T17:50:31.846Z,94.07
2023-02-19T17:52:58.817Z,106.30
2023-02-19T17:55:26.802Z,106.20
2023-02-19T17:57:53.540Z,103.43
2023-02-19T18:00:23.373Z,95.68
2023-02-19T18:02:50.264Z,88.13
2023-02-19T18:05:17.275Z,86.57
2023-02-19T18:07:44.713Z,84.93
2023-02-19T18:10:11.896Z,92.78
2023-02-19T18:12:39.495Z,99.32
2023-02-19T18:15:08.071Z,96.97
2023-02-19T18:17:35.307Z,99.68
2023-02-19T18:20:03.650Z,90.43
2023-02-19T18:22:33.288Z,92.85
2023-02-19T18:24:59.993Z,98.75
2023-02-19T18:27:26.656Z,85.93
2023-02-19T18:29:55.173Z,95.30
2023-02-19T18:32:23.987Z,100.97
2023-02-19T18:34:56.670Z,99.30
2023-02-19T18:37:25.594Z,111.60
2023-02-19T18:39:52.946Z,105.90
2023-02-19T18:42:21.574Z,104.63
2023-02-19T18:44:49.168Z,100.20
2023-02-19T18:47:18.357Z,101.30
2023-02-19T18:49:47.248Z,110.15
2023-02-19T18:52:14.188Z,105.93
2023-02-19T18:54:40.848Z,110.93
2023-02-19T18:57:08.704Z,97.82
2023-02-19T18:59:35.348Z,99.60
2023-02-19T19:02:02.790Z,104.38
2023-02-19T19:04:29.545Z,108.72
2023-02-19T19:06:56.166Z,105.05
2023-02-19T19:09:22.784Z,99.15
2023-02-19T19:11:49.408Z,103.15
2023-02-19T19:14:16.161Z,113.82
2023-02-19T19:16:43.111Z,113.57
2023-02-19T19:19:11.560Z,107.35
2023-02-19T19:21:38.319Z,111.38
2023-02-19T19:24:06.176Z,112.22
2023-02-19T19:26:34.318Z,114.65
2023-02-19T19:29:01.205Z,113.10
2023-02-19T19:31:35.197Z,98.55
2023-02-19T19:34:03.556Z,106.95
2023-02-19T19:36:30.284Z,107.32
2023-02-19T19:38:57.193Z,119.65
2023-02-19T19:41:24.806Z,102.03
2023-02-19T19:43:51.510Z,90.00
2023-02-19T19:46:21.490Z,97.57
2023-02-19T19:48:50.312Z,106.00
2023-02-19T19:51:17.410Z,98.05
2023-02-19T19:53:49.696Z,105.03
2023-02-19T19:56:17.417Z,97.43
2023-02-19T19:58:44.245Z,101.93
2023-02-19T20:01:11.184Z,105.65
2023-02-19T20:03:38.363Z,115.07
2023-02-19T20:06:05.412Z,103.35
2023-02-19T20:08:32.224Z,92.43
2023-02-19T20:10:59.271Z,109.65
2023-02-19T20:13:26.549Z,114.10
2023-02-19T20:15:53.442Z,108.72
2023-02-19T20:18:21.578Z,101.78
2023-02-19T20:20:48.161Z,108.73
2023-02-19T20:23:15.135Z,91.22
2023-02-19T20:25:41.757Z,104.70
2023-02-19T20:28:08.774Z,106.72
2023-02-19T20:30:37.438Z,108.05
2023-02-19T20:33:04.611Z,97.45
2023-02-19T20:35:31.861Z,100.88
2023-02-19T20:37:58.766Z,102.38
2023-02-19T20:40:27.835Z,99.50
2023-02-19T20:45:21.426Z,107.13
2023-02-19T20:47:48.231Z,94.20
2023-02-19T20:50:18.887Z,111.00
2023-02-19T20:52:46.721Z,105.53
2023-02-19T20:55:13.380Z,105.32
2023-02-19T20:57:40.448Z,106.25
2023-02-19T21:00:08.492Z,116.35
2023-02-19T21:02:35.954Z,105.57
2023-02-19T21:05:04.084Z,115.03
2023-02-19T21:07:31.068Z,112.93
2023-02-19T21:09:58.245Z,118.97
2023-02-19T21:12:25.041Z,102.78
2023-02-19T21:14:51.785Z,87.63
2023-02-19T21:17:18.544Z,96.32
2023-02-19T21:19:50.056Z,92.65
2023-02-19T21:22:16.798Z,107.63
2023-02-19T21:24:43.530Z,96.93
2023-02-19T21:27:10.353Z,104.15
2023-02-19T21:29:37.073Z,105.93
2023-02-19T21:32:05.104Z,92.60
2023-02-19T21:34:35.806Z,108.35
2023-02-19T21:37:02.543Z,101.18
2023-02-19T21:39:31.226Z,99.97
2023-02-19T21:41:58.959Z,100.55
2023-02-19T21:44:26.521Z,114.68
2023-02-19T21:46:53.370Z,104.95
2023-02-19T21:49:20.094Z,101.57
2023-02-19T21:51:48.754Z,103.43
2023-02-19T21:54:18.758Z,95.97
2023-02-19T21:56:45.377Z,89.20
2023-02-19T21:59:12.232Z,98.88
2023-02-19T22:01:39.517Z,113.00
2023-02-19T22:04:07.237Z,110.43
2023-02-19T22:06:34.296Z,119.95
2023-02-19T22:09:01.828Z,123.25
2023-02-19T22:11:28.860Z,124.72
2023-02-19T22:13:55.584Z,129.32
2023-02-19T22:16:22.385Z,131.27
2023-02-19T22:18:51.338Z,130.55
2023-02-19T22:23:46.574Z,127.93
2023-02-19T22:26:22.038Z,121.72
2023-02-19T22:28:48.868Z,129.13
2023-02-19T22:31:16.506Z,136.25
2023-02-19T22:33:43.444Z,129.23
2023-02-19T22:36:33.746Z,129.30
2023-02-19T22:39:01.472Z,118.18
2023-02-19T22:41:28.632Z,122.95
2023-02-19T22:43:56.277Z,124.90
2023-02-19T22:46:25.475Z,120.57
2023-02-19T22:48:52.500Z,127.63
2023-02-19T22:51:21.285Z,128.05
2023-02-19T22:53:50.787Z,126.20
2023-02-19T22:56:18.958Z,114.80
2023-02-19T22:58:46.120Z,127.72
2023-02-19T23:01:14.484Z,108.70
2023-02-19T23:03:53.124Z,122.75
2023-02-19T23:06:26.093Z,122.47
2023-02-19T23:08:54.879Z,130.52
2023-02-19T23:11:27.707Z,126.10
2023-02-19T23:13:54.404Z,121.13
2023-02-19T23:16:21.099Z,123.00
2023-02-19T23:18:48.831Z,124.40
2023-02-19T23:21:16.432Z,122.47
2023-02-19T23:23:43.586Z,118.78
2023-02-19T23:26:10.693Z,125.88
2023-02-19T23:28:39.676Z,125.30
2023-02-19T23:31:06.773Z,128.85
2023-02-19T23:33:33.657Z,122.65
2023-02-19T23:36:00.229Z,137.75
2023-02-19T23:38:26.893Z,132.55
2023-02-19T23:40:53.598Z,127.43
2023-02-19T23:43:21.149Z,132.73
2023-02-19T23:45:47.912Z,130.68
2023-02-19T23:48:14.717Z,131.20
2023-02-19T23:50:41.572Z,136.65
2023-02-19T23:53:08.441Z,138.02
2023-02-19T23:55:35.076Z,131.57
2023-02-19T23:58:01.685Z,143.10
